sensor_id;sensor_type;location;lat;lon;timestamp;temperature;humidity
18753;DHT22;9505;50.882;5.350;2024-03-25T00:01:25;3.70;99.90
18753;DHT22;9505;50.882;5.350;2024-03-25T00:03:51;3.60;99.90
18753;DHT22;9505;50.882;5.350;2024-03-25T00:06:17;3.60;99.90
18753;DHT22;9505;50.882;5.350;2024-03-25T00:08:42;3.60;99.90
18753;DHT22;9505;50.882;5.350;2024-03-25T00:11:08;3.60;99.90
18753;DHT22;9505;50.882;5.350;2024-03-25T00:13:34;3.60;99.90
18753;DHT22;9505;50.882;5.350;2024-03-25T00:15:59;3.50;99.90
18753;DHT22;9505;50.882;5.350;2024-03-25T00:18:25;3.50;99.90
18753;DHT22;9505;50.882;5.350;2024-03-25T00:20:51;3.50;99.90
18753;DHT22;9505;50.882;5.350;2024-03-25T00:23:17;3.50;99.90
18753;DHT22;9505;50.882;5.350;2024-03-25T00:25:42;3.40;99.90
18753;DHT22;9505;50.882;5.350;2024-03-25T00:28:08;3.40;99.90
18753;DHT22;9505;50.882;5.350;2024-03-25T00:30:34;3.40;99.90
18753;DHT22;9505;50.882;5.350;2024-03-25T00:32:59;3.40;99.90
18753;DHT22;9505;50.882;5.350;2024-03-25T00:35:26;3.40;99.90
18753;DHT22;9505;50.882;5.350;2024-03-25T00:37:52;3.40;99.90
18753;DHT22;9505;50.882;5.350;2024-03-25T00:40:19;3.50;99.90
18753;DHT22;9505;50.882;5.350;2024-03-25T00:42:45;3.50;99.90
18753;DHT22;9505;50.882;5.350;2024-03-25T00:45:11;3.50;99.90
18753;DHT22;9505;50.882;5.350;2024-03-25T00:47:37;3.50;99.90
18753;DHT22;9505;50.882;5.350;2024-03-25T00:50:03;3.60;99.90
18753;DHT22;9505;50.882;5.350;2024-03-25T00:52:29;3.60;99.90
18753;DHT22;9505;50.882;5.350;2024-03-25T00:54:55;3.60;99.90
18753;DHT22;9505;50.882;5.350;2024-03-25T00:57:21;3.60;99.90
18753;DHT22;9505;50.882;5.350;2024-03-25T00:59:46;3.50;99.90
18753;DHT22;9505;50.882;5.350;2024-03-25T01:02:12;3.50;99.90
18753;DHT22;9505;50.882;5.350;2024-03-25T01:04:37;3.50;99.90
18753;DHT22;9505;50.882;5.350;2024-03-25T01:07:03;3.50;99.90
18753;DHT22;9505;50.882;5.350;2024-03-25T01:09:29;3.50;99.90
18753;DHT22;9505;50.882;5.350;2024-03-25T01:11:55;3.40;99.90
18753;DHT22;9505;50.882;5.350;2024-03-25T01:14:21;3.40;99.90
18753;DHT22;9505;50.882;5.350;2024-03-25T01:16:46;3.40;99.90
18753;DHT22;9505;50.882;5.350;2024-03-25T01:19:12;3.40;99.90
18753;DHT22;9505;50.882;5.350;2024-03-25T01:21:38;3.40;99.90
18753;DHT22;9505;50.882;5.350;2024-03-25T01:24:04;3.30;99.90
18753;DHT22;9505;50.882;5.350;2024-03-25T01:26:30;3.20;99.90
18753;DHT22;9505;50.882;5.350;2024-03-25T01:28:55;3.20;99.90
18753;DHT22;9505;50.882;5.350;2024-03-25T01:31:21;3.10;99.90
18753;DHT22;9505;50.882;5.350;2024-03-25T01:33:47;3.10;99.90
18753;DHT22;9505;50.882;5.350;2024-03-25T01:36:12;3.10;99.90
18753;DHT22;9505;50.882;5.350;2024-03-25T01:38:46;3.00;99.90
18753;DHT22;9505;50.882;5.350;2024-03-25T01:41:12;3.00;99.90
18753;DHT22;9505;50.882;5.350;2024-03-25T01:43:40;2.90;99.90
18753;DHT22;9505;50.882;5.350;2024-03-25T01:46:07;2.90;99.90
18753;DHT22;9505;50.882;5.350;2024-03-25T01:48:33;2.90;99.90
18753;DHT22;9505;50.882;5.350;2024-03-25T01:51:00;2.90;99.90
18753;DHT22;9505;50.882;5.350;2024-03-25T01:53:28;2.90;99.90
18753;DHT22;9505;50.882;5.350;2024-03-25T01:55:55;2.90;99.90
18753;DHT22;9505;50.882;5.350;2024-03-25T01:58:23;2.80;99.90
18753;DHT22;9505;50.882;5.350;2024-03-25T02:00:50;2.70;99.90
18753;DHT22;9505;50.882;5.350;2024-03-25T02:03:16;2.60;99.90
18753;DHT22;9505;50.882;5.350;2024-03-25T02:05:42;2.60;99.90
18753;DHT22;9505;50.882;5.350;2024-03-25T02:08:09;2.50;99.90
18753;DHT22;9505;50.882;5.350;2024-03-25T02:10:36;2.40;99.90
18753;DHT22;9505;50.882;5.350;2024-03-25T02:13:03;2.30;99.90
18753;DHT22;9505;50.882;5.350;2024-03-25T02:15:29;2.30;99.90
18753;DHT22;9505;50.882;5.350;2024-03-25T02:17:55;2.20;99.90
18753;DHT22;9505;50.882;5.350;2024-03-25T02:20:20;2.20;99.90
18753;DHT22;9505;50.882;5.350;2024-03-25T02:22:47;2.10;99.90
18753;DHT22;9505;50.882;5.350;2024-03-25T02:25:14;2.10;99.90
18753;DHT22;9505;50.882;5.350;2024-03-25T02:27:41;2.10;99.90
18753;DHT22;9505;50.882;5.350;2024-03-25T02:30:11;2.00;99.90
18753;DHT22;9505;50.882;5.350;2024-03-25T02:32:40;2.00;99.90
18753;DHT22;9505;50.882;5.350;2024-03-25T02:35:13;1.90;99.90
18753;DHT22;9505;50.882;5.350;2024-03-25T02:37:41;1.80;99.90
18753;DHT22;9505;50.882;5.350;2024-03-25T02:40:08;1.70;99.90
18753;DHT22;9505;50.882;5.350;2024-03-25T02:42:35;1.70;99.90
18753;DHT22;9505;50.882;5.350;2024-03-25T02:45:02;1.60;99.90
18753;DHT22;9505;50.882;5.350;2024-03-25T02:47:28;1.50;99.90
18753;DHT22;9505;50.882;5.350;2024-03-25T02:49:53;1.50;99.90
18753;DHT22;9505;50.882;5.350;2024-03-25T02:52:20;1.40;99.90
18753;DHT22;9505;50.882;5.350;2024-03-25T02:54:46;1.40;99.90
18753;DHT22;9505;50.882;5.350;2024-03-25T02:57:12;1.40;99.90
18753;DHT22;9505;50.882;5.350;2024-03-25T02:59:37;1.30;99.90
18753;DHT22;9505;50.882;5.350;2024-03-25T03:02:03;1.40;99.90
18753;DHT22;9505;50.882;5.350;2024-03-25T03:04:29;1.40;99.90
18753;DHT22;9505;50.882;5.350;2024-03-25T03:06:55;1.40;99.90
18753;DHT22;9505;50.882;5.350;2024-03-25T03:09:21;1.40;99.90
18753;DHT22;9505;50.882;5.350;2024-03-25T03:11:46;1.30;99.90
18753;DHT22;9505;50.882;5.350;2024-03-25T03:14:12;1.20;99.90
18753;DHT22;9505;50.882;5.350;2024-03-25T03:16:38;1.20;99.90
18753;DHT22;9505;50.882;5.350;2024-03-25T03:19:03;1.10;99.90
18753;DHT22;9505;50.882;5.350;2024-03-25T03:21:30;1.00;99.90
18753;DHT22;9505;50.882;5.350;2024-03-25T03:23:55;1.00;99.90
18753;DHT22;9505;50.882;5.350;2024-03-25T03:26:21;1.00;99.90
18753;DHT22;9505;50.882;5.350;2024-03-25T03:28:54;1.00;99.90
18753;DHT22;9505;50.882;5.350;2024-03-25T03:31:20;0.90;99.90
18753;DHT22;9505;50.882;5.350;2024-03-25T03:33:49;0.90;99.90
18753;DHT22;9505;50.882;5.350;2024-03-25T03:36:21;0.90;99.90
18753;DHT22;9505;50.882;5.350;2024-03-25T03:38:47;0.90;99.90
18753;DHT22;9505;50.882;5.350;2024-03-25T03:41:13;0.80;99.90
18753;DHT22;9505;50.882;5.350;2024-03-25T03:43:38;0.80;99.90
18753;DHT22;9505;50.882;5.350;2024-03-25T03:46:04;0.80;99.90
18753;DHT22;9505;50.882;5.350;2024-03-25T03:48:30;0.80;99.90
18753;DHT22;9505;50.882;5.350;2024-03-25T03:50:56;0.80;99.90
18753;DHT22;9505;50.882;5.350;2024-03-25T03:53:22;0.80;99.90
18753;DHT22;9505;50.882;5.350;2024-03-25T03:58:20;0.70;99.90
18753;DHT22;9505;50.882;5.350;2024-03-25T04:00:46;0.70;99.90
18753;DHT22;9505;50.882;5.350;2024-03-25T04:03:12;0.60;99.90
18753;DHT22;9505;50.882;5.350;2024-03-25T04:05:37;0.60;99.90
18753;DHT22;9505;50.882;5.350;2024-03-25T04:08:03;0.50;99.90
18753;DHT22;9505;50.882;5.350;2024-03-25T04:10:29;0.50;99.90
18753;DHT22;9505;50.882;5.350;2024-03-25T04:12:54;0.50;99.90
18753;DHT22;9505;50.882;5.350;2024-03-25T04:15:21;0.50;99.90
18753;DHT22;9505;50.882;5.350;2024-03-25T04:17:47;0.50;99.90
18753;DHT22;9505;50.882;5.350;2024-03-25T04:20:16;0.50;99.90
18753;DHT22;9505;50.882;5.350;2024-03-25T04:22:42;0.50;99.90
18753;DHT22;9505;50.882;5.350;2024-03-25T04:25:11;0.50;99.90
18753;DHT22;9505;50.882;5.350;2024-03-25T04:27:43;0.40;99.90
18753;DHT22;9505;50.882;5.350;2024-03-25T04:30:10;0.40;99.90
18753;DHT22;9505;50.882;5.350;2024-03-25T04:32:38;0.40;99.90
18753;DHT22;9505;50.882;5.350;2024-03-25T04:35:05;0.40;99.90
18753;DHT22;9505;50.882;5.350;2024-03-25T04:37:32;0.40;99.90
18753;DHT22;9505;50.882;5.350;2024-03-25T04:39:57;0.30;99.90
18753;DHT22;9505;50.882;5.350;2024-03-25T04:42:23;0.30;99.90
18753;DHT22;9505;50.882;5.350;2024-03-25T04:44:52;0.30;99.90
18753;DHT22;9505;50.882;5.350;2024-03-25T04:47:18;0.30;99.90
18753;DHT22;9505;50.882;5.350;2024-03-25T04:49:44;0.40;99.90
18753;DHT22;9505;50.882;5.350;2024-03-25T04:52:13;0.40;99.90
18753;DHT22;9505;50.882;5.350;2024-03-25T04:54:48;0.40;99.90
18753;DHT22;9505;50.882;5.350;2024-03-25T04:57:14;0.40;99.90
18753;DHT22;9505;50.882;5.350;2024-03-25T04:59:40;0.40;99.90
18753;DHT22;9505;50.882;5.350;2024-03-25T05:02:05;0.40;99.90
18753;DHT22;9505;50.882;5.350;2024-03-25T05:04:31;0.40;99.90
18753;DHT22;9505;50.882;5.350;2024-03-25T05:06:57;0.40;99.90
18753;DHT22;9505;50.882;5.350;2024-03-25T05:09:23;0.40;99.90
18753;DHT22;9505;50.882;5.350;2024-03-25T05:11:48;0.30;99.90
18753;DHT22;9505;50.882;5.350;2024-03-25T05:14:14;0.30;99.90
18753;DHT22;9505;50.882;5.350;2024-03-25T05:16:39;0.30;99.90
18753;DHT22;9505;50.882;5.350;2024-03-25T05:19:05;0.40;99.90
18753;DHT22;9505;50.882;5.350;2024-03-25T05:21:31;0.40;99.90
18753;DHT22;9505;50.882;5.350;2024-03-25T05:23:57;0.40;99.90
18753;DHT22;9505;50.882;5.350;2024-03-25T05:26:23;0.40;99.90
18753;DHT22;9505;50.882;5.350;2024-03-25T05:28:57;0.50;99.90
18753;DHT22;9505;50.882;5.350;2024-03-25T05:31:24;0.50;99.90
18753;DHT22;9505;50.882;5.350;2024-03-25T05:33:50;0.50;99.90
18753;DHT22;9505;50.882;5.350;2024-03-25T05:36:15;0.50;99.90
18753;DHT22;9505;50.882;5.350;2024-03-25T05:38:41;0.60;99.90
18753;DHT22;9505;50.882;5.350;2024-03-25T05:41:11;0.60;99.90
18753;DHT22;9505;50.882;5.350;2024-03-25T05:43:37;0.60;99.90
18753;DHT22;9505;50.882;5.350;2024-03-25T05:46:03;0.70;99.90
18753;DHT22;9505;50.882;5.350;2024-03-25T05:48:29;0.80;99.90
18753;DHT22;9505;50.882;5.350;2024-03-25T05:51:04;0.80;99.90
18753;DHT22;9505;50.882;5.350;2024-03-25T05:53:31;0.90;99.90
18753;DHT22;9505;50.882;5.350;2024-03-25T05:55:57;1.00;99.90
18753;DHT22;9505;50.882;5.350;2024-03-25T05:58:24;1.20;99.90
18753;DHT22;9505;50.882;5.350;2024-03-25T06:00:51;1.30;99.90
18753;DHT22;9505;50.882;5.350;2024-03-25T06:03:18;1.60;99.90
18753;DHT22;9505;50.882;5.350;2024-03-25T06:05:44;2.10;99.90
18753;DHT22;9505;50.882;5.350;2024-03-25T06:08:11;2.40;99.90
18753;DHT22;9505;50.882;5.350;2024-03-25T06:10:53;2.50;99.90
18753;DHT22;9505;50.882;5.350;2024-03-25T06:13:19;3.00;99.90
18753;DHT22;9505;50.882;5.350;2024-03-25T06:15:45;3.40;99.90
18753;DHT22;9505;50.882;5.350;2024-03-25T06:18:11;3.70;99.90
18753;DHT22;9505;50.882;5.350;2024-03-25T06:20:37;3.70;99.90
18753;DHT22;9505;50.882;5.350;2024-03-25T06:23:03;3.70;99.90
18753;DHT22;9505;50.882;5.350;2024-03-25T06:25:29;3.90;99.90
18753;DHT22;9505;50.882;5.350;2024-03-25T06:27:55;4.20;99.90
18753;DHT22;9505;50.882;5.350;2024-03-25T06:30:20;4.70;99.90
18753;DHT22;9505;50.882;5.350;2024-03-25T06:33:05;5.30;99.90
18753;DHT22;9505;50.882;5.350;2024-03-25T06:35:49;5.70;99.90
18753;DHT22;9505;50.882;5.350;2024-03-25T06:38:14;6.10;99.90
18753;DHT22;9505;50.882;5.350;2024-03-25T06:40:40;6.40;99.90
18753;DHT22;9505;50.882;5.350;2024-03-25T06:43:06;6.50;99.90
18753;DHT22;9505;50.882;5.350;2024-03-25T06:45:31;6.30;99.90
18753;DHT22;9505;50.882;5.350;2024-03-25T06:47:57;6.20;99.90
18753;DHT22;9505;50.882;5.350;2024-03-25T06:50:23;6.20;99.90
18753;DHT22;9505;50.882;5.350;2024-03-25T06:52:49;6.40;99.90
18753;DHT22;9505;50.882;5.350;2024-03-25T06:55:15;6.50;99.90
18753;DHT22;9505;50.882;5.350;2024-03-25T06:57:40;6.50;99.90
18753;DHT22;9505;50.882;5.350;2024-03-25T07:00:06;6.60;99.90
18753;DHT22;9505;50.882;5.350;2024-03-25T07:02:41;6.70;99.90
18753;DHT22;9505;50.882;5.350;2024-03-25T07:05:07;6.90;99.90
18753;DHT22;9505;50.882;5.350;2024-03-25T07:07:33;7.20;99.90
18753;DHT22;9505;50.882;5.350;2024-03-25T07:10:02;7.40;99.90
18753;DHT22;9505;50.882;5.350;2024-03-25T07:12:28;7.60;99.90
18753;DHT22;9505;50.882;5.350;2024-03-25T07:14:54;8.00;99.90
18753;DHT22;9505;50.882;5.350;2024-03-25T07:17:19;8.10;99.90
18753;DHT22;9505;50.882;5.350;2024-03-25T07:19:47;8.10;99.90
18753;DHT22;9505;50.882;5.350;2024-03-25T07:22:13;7.90;99.90
18753;DHT22;9505;50.882;5.350;2024-03-25T07:24:38;7.90;99.90
18753;DHT22;9505;50.882;5.350;2024-03-25T07:27:04;7.90;99.90
18753;DHT22;9505;50.882;5.350;2024-03-25T07:29:31;7.90;99.90
18753;DHT22;9505;50.882;5.350;2024-03-25T07:31:56;8.10;99.90
18753;DHT22;9505;50.882;5.350;2024-03-25T07:34:22;8.20;99.90
18753;DHT22;9505;50.882;5.350;2024-03-25T07:36:47;8.50;99.90
18753;DHT22;9505;50.882;5.350;2024-03-25T07:39:14;9.00;99.90
18753;DHT22;9505;50.882;5.350;2024-03-25T07:41:40;9.00;99.90
18753;DHT22;9505;50.882;5.350;2024-03-25T07:44:05;9.10;99.90
18753;DHT22;9505;50.882;5.350;2024-03-25T07:46:31;9.10;99.90
18753;DHT22;9505;50.882;5.350;2024-03-25T07:48:57;9.30;99.90
18753;DHT22;9505;50.882;5.350;2024-03-25T07:51:23;9.90;99.90
18753;DHT22;9505;50.882;5.350;2024-03-25T07:53:48;10.50;99.90
18753;DHT22;9505;50.882;5.350;2024-03-25T07:56:17;10.90;99.90
18753;DHT22;9505;50.882;5.350;2024-03-25T07:58:43;11.10;99.90
18753;DHT22;9505;50.882;5.350;2024-03-25T08:01:08;11.80;99.90
18753;DHT22;9505;50.882;5.350;2024-03-25T08:03:34;13.20;99.90
18753;DHT22;9505;50.882;5.350;2024-03-25T08:06:00;14.10;99.90
18753;DHT22;9505;50.882;5.350;2024-03-25T08:08:26;14.50;99.90
18753;DHT22;9505;50.882;5.350;2024-03-25T08:10:51;14.40;99.90
18753;DHT22;9505;50.882;5.350;2024-03-25T08:13:18;14.60;99.90
18753;DHT22;9505;50.882;5.350;2024-03-25T08:15:45;14.20;99.90
18753;DHT22;9505;50.882;5.350;2024-03-25T08:18:11;13.70;99.90
18753;DHT22;9505;50.882;5.350;2024-03-25T08:20:37;13.10;99.90
18753;DHT22;9505;50.882;5.350;2024-03-25T08:23:03;12.70;99.90
18753;DHT22;9505;50.882;5.350;2024-03-25T08:25:29;12.40;99.90
18753;DHT22;9505;50.882;5.350;2024-03-25T08:27:54;12.30;99.90
18753;DHT22;9505;50.882;5.350;2024-03-25T08:30:20;12.00;99.90
18753;DHT22;9505;50.882;5.350;2024-03-25T08:32:45;11.80;99.90
18753;DHT22;9505;50.882;5.350;2024-03-25T08:35:11;12.00;99.90
18753;DHT22;9505;50.882;5.350;2024-03-25T08:37:38;12.10;99.90
18753;DHT22;9505;50.882;5.350;2024-03-25T08:40:04;12.20;99.90
18753;DHT22;9505;50.882;5.350;2024-03-25T08:42:30;11.90;99.90
18753;DHT22;9505;50.882;5.350;2024-03-25T08:44:56;11.70;99.90
18753;DHT22;9505;50.882;5.350;2024-03-25T08:47:21;11.60;99.90
18753;DHT22;9505;50.882;5.350;2024-03-25T08:49:47;11.70;99.90
18753;DHT22;9505;50.882;5.350;2024-03-25T08:52:12;11.60;99.90
18753;DHT22;9505;50.882;5.350;2024-03-25T08:54:38;11.70;99.90
18753;DHT22;9505;50.882;5.350;2024-03-25T08:57:04;11.80;99.90
18753;DHT22;9505;50.882;5.350;2024-03-25T08:59:30;11.80;99.90
18753;DHT22;9505;50.882;5.350;2024-03-25T09:01:55;11.80;99.90
18753;DHT22;9505;50.882;5.350;2024-03-25T09:04:21;12.10;99.90
18753;DHT22;9505;50.882;5.350;2024-03-25T09:06:46;12.20;99.90
18753;DHT22;9505;50.882;5.350;2024-03-25T09:09:13;12.40;99.90
18753;DHT22;9505;50.882;5.350;2024-03-25T09:11:57;12.10;99.90
18753;DHT22;9505;50.882;5.350;2024-03-25T09:14:22;11.40;99.90
18753;DHT22;9505;50.882;5.350;2024-03-25T09:16:48;11.10;99.90
18753;DHT22;9505;50.882;5.350;2024-03-25T09:19:14;11.20;99.90
18753;DHT22;9505;50.882;5.350;2024-03-25T09:21:39;11.30;99.90
18753;DHT22;9505;50.882;5.350;2024-03-25T09:24:05;11.60;99.90
18753;DHT22;9505;50.882;5.350;2024-03-25T09:26:31;12.00;99.90
18753;DHT22;9505;50.882;5.350;2024-03-25T09:28:57;12.20;99.90
18753;DHT22;9505;50.882;5.350;2024-03-25T09:31:22;12.50;99.90
18753;DHT22;9505;50.882;5.350;2024-03-25T09:33:48;12.90;99.90
18753;DHT22;9505;50.882;5.350;2024-03-25T09:36:13;12.90;99.90
18753;DHT22;9505;50.882;5.350;2024-03-25T09:38:40;13.20;99.90
18753;DHT22;9505;50.882;5.350;2024-03-25T09:41:08;12.50;99.90
18753;DHT22;9505;50.882;5.350;2024-03-25T09:43:44;12.00;99.90
18753;DHT22;9505;50.882;5.350;2024-03-25T09:46:13;11.90;99.90
18753;DHT22;9505;50.882;5.350;2024-03-25T09:48:41;11.60;99.90
18753;DHT22;9505;50.882;5.350;2024-03-25T09:51:07;11.50;99.90
18753;DHT22;9505;50.882;5.350;2024-03-25T09:53:34;11.80;99.90
18753;DHT22;9505;50.882;5.350;2024-03-25T09:56:00;11.80;99.90
18753;DHT22;9505;50.882;5.350;2024-03-25T09:58:26;11.70;99.90
18753;DHT22;9505;50.882;5.350;2024-03-25T10:00:52;11.80;99.90
18753;DHT22;9505;50.882;5.350;2024-03-25T10:03:18;12.10;99.90
18753;DHT22;9505;50.882;5.350;2024-03-25T10:05:44;12.10;99.90
18753;DHT22;9505;50.882;5.350;2024-03-25T10:08:10;12.40;99.90
18753;DHT22;9505;50.882;5.350;2024-03-25T10:10:35;12.50;99.90
18753;DHT22;9505;50.882;5.350;2024-03-25T10:13:06;12.60;99.90
18753;DHT22;9505;50.882;5.350;2024-03-25T10:15:33;12.70;99.90
18753;DHT22;9505;50.882;5.350;2024-03-25T10:17:59;12.40;99.90
18753;DHT22;9505;50.882;5.350;2024-03-25T10:20:24;12.20;99.90
18753;DHT22;9505;50.882;5.350;2024-03-25T10:22:51;11.80;99.90
18753;DHT22;9505;50.882;5.350;2024-03-25T10:25:27;12.10;99.90
18753;DHT22;9505;50.882;5.350;2024-03-25T10:27:59;12.40;99.90
18753;DHT22;9505;50.882;5.350;2024-03-25T10:30:29;12.60;99.90
18753;DHT22;9505;50.882;5.350;2024-03-25T10:33:02;12.70;99.90
18753;DHT22;9505;50.882;5.350;2024-03-25T10:35:30;12.80;99.90
18753;DHT22;9505;50.882;5.350;2024-03-25T10:38:09;13.30;99.90
18753;DHT22;9505;50.882;5.350;2024-03-25T10:40:37;13.20;99.90
18753;DHT22;9505;50.882;5.350;2024-03-25T10:43:06;13.50;99.90
18753;DHT22;9505;50.882;5.350;2024-03-25T10:45:59;13.90;99.90
18753;DHT22;9505;50.882;5.350;2024-03-25T10:48:28;14.00;99.90
18753;DHT22;9505;50.882;5.350;2024-03-25T10:50:59;14.00;99.90
18753;DHT22;9505;50.882;5.350;2024-03-25T10:53:27;13.90;99.90
18753;DHT22;9505;50.882;5.350;2024-03-25T10:55:55;13.40;99.90
18753;DHT22;9505;50.882;5.350;2024-03-25T10:58:22;14.00;99.90
18753;DHT22;9505;50.882;5.350;2024-03-25T11:00:52;14.30;99.90
18753;DHT22;9505;50.882;5.350;2024-03-25T11:03:23;14.50;99.90
18753;DHT22;9505;50.882;5.350;2024-03-25T11:05:50;14.60;99.90
18753;DHT22;9505;50.882;5.350;2024-03-25T11:08:16;14.60;99.90
18753;DHT22;9505;50.882;5.350;2024-03-25T11:10:44;13.80;99.90
18753;DHT22;9505;50.882;5.350;2024-03-25T11:13:13;13.80;99.90
18753;DHT22;9505;50.882;5.350;2024-03-25T11:15:43;14.50;99.90
18753;DHT22;9505;50.882;5.350;2024-03-25T11:18:14;14.80;99.90
18753;DHT22;9505;50.882;5.350;2024-03-25T11:20:40;14.90;99.90
18753;DHT22;9505;50.882;5.350;2024-03-25T11:23:13;14.80;99.90
18753;DHT22;9505;50.882;5.350;2024-03-25T11:25:39;15.30;99.90
18753;DHT22;9505;50.882;5.350;2024-03-25T11:28:06;15.00;99.90
18753;DHT22;9505;50.882;5.350;2024-03-25T11:30:32;15.10;99.90
18753;DHT22;9505;50.882;5.350;2024-03-25T11:33:01;14.50;99.90
18753;DHT22;9505;50.882;5.350;2024-03-25T11:35:28;14.20;99.90
18753;DHT22;9505;50.882;5.350;2024-03-25T11:37:54;14.00;99.90
18753;DHT22;9505;50.882;5.350;2024-03-25T11:40:19;14.20;99.90
18753;DHT22;9505;50.882;5.350;2024-03-25T11:42:46;15.00;99.90
18753;DHT22;9505;50.882;5.350;2024-03-25T11:45:19;15.60;99.90
18753;DHT22;9505;50.882;5.350;2024-03-25T11:47:46;15.30;99.90
18753;DHT22;9505;50.882;5.350;2024-03-25T11:50:14;15.20;99.90
18753;DHT22;9505;50.882;5.350;2024-03-25T11:52:41;15.90;99.90
18753;DHT22;9505;50.882;5.350;2024-03-25T11:55:07;16.10;99.90
18753;DHT22;9505;50.882;5.350;2024-03-25T11:57:38;15.50;99.90
18753;DHT22;9505;50.882;5.350;2024-03-25T12:00:05;15.40;99.90
18753;DHT22;9505;50.882;5.350;2024-03-25T12:02:32;14.70;99.90
18753;DHT22;9505;50.882;5.350;2024-03-25T12:04:57;14.00;99.90
18753;DHT22;9505;50.882;5.350;2024-03-25T12:07:23;14.10;99.90
18753;DHT22;9505;50.882;5.350;2024-03-25T12:09:49;14.70;99.90
18753;DHT22;9505;50.882;5.350;2024-03-25T12:12:33;15.50;99.90
18753;DHT22;9505;50.882;5.350;2024-03-25T12:15:00;15.20;99.90
18753;DHT22;9505;50.882;5.350;2024-03-25T12:17:28;15.20;99.90
18753;DHT22;9505;50.882;5.350;2024-03-25T12:22:30;15.30;99.90
18753;DHT22;9505;50.882;5.350;2024-03-25T12:25:03;15.60;99.90
18753;DHT22;9505;50.882;5.350;2024-03-25T12:27:32;15.50;99.90
18753;DHT22;9505;50.882;5.350;2024-03-25T12:32:40;15.30;99.90
18753;DHT22;9505;50.882;5.350;2024-03-25T12:35:11;15.50;99.90
18753;DHT22;9505;50.882;5.350;2024-03-25T12:37:41;16.10;99.90
18753;DHT22;9505;50.882;5.350;2024-03-25T12:40:09;16.90;99.90
18753;DHT22;9505;50.882;5.350;2024-03-25T12:42:36;17.60;99.90
18753;DHT22;9505;50.882;5.350;2024-03-25T12:45:03;17.60;98.90
18753;DHT22;9505;50.882;5.350;2024-03-25T12:47:29;17.30;99.20
18753;DHT22;9505;50.882;5.350;2024-03-25T12:49:56;17.50;99.90
18753;DHT22;9505;50.882;5.350;2024-03-25T12:52:21;17.50;98.20
18753;DHT22;9505;50.882;5.350;2024-03-25T12:54:47;17.50;98.20
18753;DHT22;9505;50.882;5.350;2024-03-25T12:57:13;17.40;96.50
18753;DHT22;9505;50.882;5.350;2024-03-25T12:59:38;17.40;97.70
18753;DHT22;9505;50.882;5.350;2024-03-25T13:02:04;17.20;97.30
18753;DHT22;9505;50.882;5.350;2024-03-25T13:04:30;16.60;96.40
18753;DHT22;9505;50.882;5.350;2024-03-25T13:06:56;16.00;99.50
18753;DHT22;9505;50.882;5.350;2024-03-25T13:09:21;15.40;98.60
18753;DHT22;9505;50.882;5.350;2024-03-25T13:11:47;15.10;99.10
18753;DHT22;9505;50.882;5.350;2024-03-25T13:14:13;15.00;99.10
18753;DHT22;9505;50.882;5.350;2024-03-25T13:16:41;14.90;99.50
18753;DHT22;9505;50.882;5.350;2024-03-25T13:19:07;15.10;98.30
18753;DHT22;9505;50.882;5.350;2024-03-25T13:21:33;15.20;99.90
18753;DHT22;9505;50.882;5.350;2024-03-25T13:23:59;15.60;98.40
18753;DHT22;9505;50.882;5.350;2024-03-25T13:26:24;16.00;98.70
18753;DHT22;9505;50.882;5.350;2024-03-25T13:28:51;15.30;97.40
18753;DHT22;9505;50.882;5.350;2024-03-25T13:31:17;15.10;99.90
18753;DHT22;9505;50.882;5.350;2024-03-25T13:33:42;15.60;99.90
18753;DHT22;9505;50.882;5.350;2024-03-25T13:36:08;15.70;98.60
18753;DHT22;9505;50.882;5.350;2024-03-25T13:38:34;15.20;97.30
18753;DHT22;9505;50.882;5.350;2024-03-25T13:41:01;15.00;98.60
18753;DHT22;9505;50.882;5.350;2024-03-25T13:43:26;15.10;99.90
18753;DHT22;9505;50.882;5.350;2024-03-25T13:45:52;15.10;98.50
18753;DHT22;9505;50.882;5.350;2024-03-25T13:48:18;15.30;97.30
18753;DHT22;9505;50.882;5.350;2024-03-25T13:50:43;15.30;98.70
18753;DHT22;9505;50.882;5.350;2024-03-25T13:53:09;14.90;99.00
18753;DHT22;9505;50.882;5.350;2024-03-25T13:55:35;14.70;98.50
18753;DHT22;9505;50.882;5.350;2024-03-25T13:58:01;14.60;99.90
18753;DHT22;9505;50.882;5.350;2024-03-25T14:00:28;14.60;99.90
18753;DHT22;9505;50.882;5.350;2024-03-25T14:02:56;15.00;99.80
18753;DHT22;9505;50.882;5.350;2024-03-25T14:05:22;15.50;99.40
18753;DHT22;9505;50.882;5.350;2024-03-25T14:07:51;16.10;98.50
18753;DHT22;9505;50.882;5.350;2024-03-25T14:10:17;16.30;97.70
18753;DHT22;9505;50.882;5.350;2024-03-25T14:12:42;16.40;97.40
18753;DHT22;9505;50.882;5.350;2024-03-25T14:15:08;16.70;97.80
18753;DHT22;9505;50.882;5.350;2024-03-25T14:17:35;17.00;97.00
18753;DHT22;9505;50.882;5.350;2024-03-25T14:20:01;17.50;94.70
18753;DHT22;9505;50.882;5.350;2024-03-25T14:22:26;17.30;97.50
18753;DHT22;9505;50.882;5.350;2024-03-25T14:24:52;17.10;95.00
18753;DHT22;9505;50.882;5.350;2024-03-25T14:27:23;17.40;96.90
18753;DHT22;9505;50.882;5.350;2024-03-25T14:29:49;17.60;95.00
18753;DHT22;9505;50.882;5.350;2024-03-25T14:32:14;17.00;95.60
18753;DHT22;9505;50.882;5.350;2024-03-25T14:34:40;16.00;97.20
18753;DHT22;9505;50.882;5.350;2024-03-25T14:37:05;15.50;99.40
18753;DHT22;9505;50.882;5.350;2024-03-25T14:39:31;15.00;98.50
18753;DHT22;9505;50.882;5.350;2024-03-25T14:41:57;14.50;99.80
18753;DHT22;9505;50.882;5.350;2024-03-25T14:44:22;14.50;99.90
18753;DHT22;9505;50.882;5.350;2024-03-25T14:46:48;14.50;99.90
18753;DHT22;9505;50.882;5.350;2024-03-25T14:49:14;14.60;98.60
18753;DHT22;9505;50.882;5.350;2024-03-25T14:51:39;15.40;98.90
18753;DHT22;9505;50.882;5.350;2024-03-25T14:54:06;16.30;95.70
18753;DHT22;9505;50.882;5.350;2024-03-25T14:56:32;17.00;96.00
18753;DHT22;9505;50.882;5.350;2024-03-25T14:58:58;17.50;96.80
18753;DHT22;9505;50.882;5.350;2024-03-25T15:01:24;17.20;96.10
18753;DHT22;9505;50.882;5.350;2024-03-25T15:03:50;17.40;97.30
18753;DHT22;9505;50.882;5.350;2024-03-25T15:06:15;17.60;96.70
18753;DHT22;9505;50.882;5.350;2024-03-25T15:08:41;17.50;93.00
18753;DHT22;9505;50.882;5.350;2024-03-25T15:11:07;17.30;93.60
18753;DHT22;9505;50.882;5.350;2024-03-25T15:13:36;17.20;95.40
18753;DHT22;9505;50.882;5.350;2024-03-25T15:16:05;16.90;95.70
18753;DHT22;9505;50.882;5.350;2024-03-25T15:18:31;17.20;94.80
18753;DHT22;9505;50.882;5.350;2024-03-25T15:21:02;16.80;94.70
18753;DHT22;9505;50.882;5.350;2024-03-25T15:23:27;16.00;95.00
18753;DHT22;9505;50.882;5.350;2024-03-25T15:25:53;15.50;98.20
18753;DHT22;9505;50.882;5.350;2024-03-25T15:28:19;15.20;96.50
18753;DHT22;9505;50.882;5.350;2024-03-25T15:30:46;15.20;97.50
18753;DHT22;9505;50.882;5.350;2024-03-25T15:33:13;15.50;98.70
18753;DHT22;9505;50.882;5.350;2024-03-25T15:35:39;15.90;97.40
18753;DHT22;9505;50.882;5.350;2024-03-25T15:38:04;15.80;95.00
18753;DHT22;9505;50.882;5.350;2024-03-25T15:40:30;15.50;96.10
18753;DHT22;9505;50.882;5.350;2024-03-25T15:42:56;15.60;96.40
18753;DHT22;9505;50.882;5.350;2024-03-25T15:45:21;15.30;97.00
18753;DHT22;9505;50.882;5.350;2024-03-25T15:47:50;15.40;95.60
18753;DHT22;9505;50.882;5.350;2024-03-25T15:50:16;15.20;97.60
18753;DHT22;9505;50.882;5.350;2024-03-25T15:52:42;15.00;98.30
18753;DHT22;9505;50.882;5.350;2024-03-25T15:55:07;15.10;98.40
18753;DHT22;9505;50.882;5.350;2024-03-25T15:57:33;15.10;95.60
18753;DHT22;9505;50.882;5.350;2024-03-25T15:59:59;15.10;97.90